Main page
METAR-TAF:

METAR-TAF

Airports :

Albacete Airport

Albacete, Spain

latitude: 38-57N, longitude: 001-51W, elevation: 702 m

Current weather observation

The report was made 36 minutes ago, at 03:30 UTC
Wind 7 kt from the West
Temperature 19°C
Humidity 49%
Pressure 1012 hPa
Visibility 10 km or more
no clouds below 1500 m and no cumulonimbus

METAR: LEAB 150330Z 26007KT CAVOK 19/08 Q1012 NOSIG

Time: 06:06 (04:06 UTC)

Forecast

The report was made 5 hours and 6 minutes ago, at 23:00 UTC
Forecast valid from 15 at 00 UTC to 15 at 24 UTC
Wind 10 kt from the West
Visibility 10 km or more
no clouds below 1500 m and no cumulonimbus
Temporary
from 15 at 00 UTC to 15 at 10 UTC
Wind 8 kt from the West/Southwest
Probability 30% :
Temporary
from 15 at 10 UTC to 15 at 13 UTC
Wind 12 kt from the West with gusts up to 25 kt

TAF: LEAB 142300Z 1500/1524 27010KT CAVOK TX33/1515Z TN17/1506Z TEMPO 1500/1510 25008KT PROB30 TEMPO 1510/1513 27012G25KT

Weather observations and forecasts of more than 4000 airports (METAR and TAF reports).

The available stations are represented by yellow and red dots on the map.

Hover mouse over dot to see the name of the station.

Then click to see weather observations and forecasts.

To change the map : click on the green buttons with a black cross to zoom in, on the green button with a dash to zoom out, or on the green arrows for adjacent maps.


METAR-TAF: